createdAt,value
2017-12-20T00:00:34.037Z,7.14
2017-12-20T00:01:34.051Z,7.14
2017-12-20T00:02:34.061Z,7.17
2017-12-20T00:03:34.349Z,7.23
2017-12-20T00:04:34.408Z,7.21
2017-12-20T00:05:34.372Z,7.15
2017-12-20T00:06:34.382Z,7.14
2017-12-20T00:07:34.122Z,7.17
2017-12-20T00:08:34.416Z,7.18
2017-12-20T00:09:34.474Z,7.23
2017-12-20T00:10:34.432Z,7.17
2017-12-20T00:11:34.451Z,7.15
2017-12-20T00:12:34.456Z,7.24
2017-12-20T00:13:34.466Z,7.2
2017-12-20T00:14:34.489Z,7.17
2017-12-20T00:15:34.215Z,7.13
2017-12-20T00:16:34.503Z,7.2
2017-12-20T00:17:33.961Z,7.17
2017-12-20T00:18:34.527Z,7.21
2017-12-20T00:19:34.319Z,7.2
2017-12-20T00:20:34.275Z,7.23
2017-12-20T00:21:34.014Z,7.23
2017-12-20T00:22:34.297Z,7.17
2017-12-20T00:23:34.312Z,7.17
2017-12-20T00:24:34.708Z,7.23
2017-12-20T00:25:34.610Z,7.24
2017-12-20T00:26:34.347Z,7.15
2017-12-20T00:27:34.633Z,7.24
2017-12-20T00:28:34.642Z,7.29
2017-12-20T00:29:34.711Z,7.18
2017-12-20T00:30:34.397Z,7.21
2017-12-20T00:31:34.681Z,7.2
2017-12-20T00:32:34.711Z,7.28
2017-12-20T00:33:34.428Z,7.2
2017-12-20T00:34:34.437Z,7.24
2017-12-20T00:35:34.450Z,7.2
2017-12-20T00:36:34.751Z,7.17
2017-12-20T00:37:34.750Z,7.21
2017-12-20T00:38:34.772Z,7.28
2017-12-20T00:39:34.772Z,7.2
2017-12-20T00:40:34.235Z,7.2
2017-12-20T00:41:34.523Z,7.21
2017-12-20T00:42:34.538Z,7.21
2017-12-20T00:43:34.821Z,7.2
2017-12-20T00:44:34.559Z,7.18
2017-12-20T00:45:34.844Z,7.18
2017-12-20T00:46:34.302Z,7.18
2017-12-20T00:47:34.591Z,7.18
2017-12-20T00:48:34.876Z,7.21
2017-12-20T00:49:34.943Z,7.21
2017-12-20T00:50:34.632Z,7.23
2017-12-20T00:51:34.646Z,7.31
2017-12-20T00:52:34.651Z,7.23
2017-12-20T00:53:34.938Z,7.23
2017-12-20T00:54:34.404Z,7.21
2017-12-20T00:55:34.411Z,7.28
2017-12-20T00:56:34.977Z,7.24
2017-12-20T00:57:34.991Z,7.18
2017-12-20T00:58:34.997Z,7.21
2017-12-20T00:59:34.732Z,7.31
2017-12-20T01:00:35.023Z,7.2
2017-12-20T01:01:35.043Z,7.2
2017-12-20T01:02:35.048Z,7.21
2017-12-20T01:03:35.056Z,7.18
2017-12-20T01:04:35.069Z,7.28
2017-12-20T01:05:35.078Z,7.29
2017-12-20T01:06:35.095Z,7.18
2017-12-20T01:07:34.829Z,7.31
2017-12-20T01:08:34.843Z,7.31
2017-12-20T01:09:35.138Z,7.24
2017-12-20T01:10:34.592Z,7.28
2017-12-20T01:11:34.874Z,7.29
2017-12-20T01:12:35.169Z,7.24
2017-12-20T01:13:34.622Z,7.23
2017-12-20T01:14:35.184Z,7.2
2017-12-20T01:15:35.198Z,7.24
2017-12-20T01:16:34.937Z,7.18
2017-12-20T01:17:35.272Z,7.2
2017-12-20T01:18:34.961Z,7.23
2017-12-20T01:19:35.251Z,7.24
2017-12-20T01:20:35.260Z,7.21
2017-12-20T01:21:34.996Z,7.23
2017-12-20T01:22:35.283Z,7.2
2017-12-20T01:23:35.303Z,7.21
2017-12-20T01:24:34.753Z,7.28
2017-12-20T01:25:35.049Z,7.24
2017-12-20T01:26:35.055Z,7.2
2017-12-20T01:27:35.347Z,7.24
2017-12-20T01:28:35.353Z,7.17
2017-12-20T01:29:35.091Z,7.23
2017-12-20T01:30:35.103Z,7.2
2017-12-20T01:31:35.390Z,7.2
2017-12-20T01:32:35.122Z,7.24
2017-12-20T01:33:35.138Z,7.31
2017-12-20T01:34:35.428Z,7.24
2017-12-20T01:35:35.442Z,7.21
2017-12-20T01:36:35.174Z,7.18
2017-12-20T01:37:35.188Z,7.17
2017-12-20T01:38:35.476Z,7.21
2017-12-20T01:39:35.207Z,7.28
2017-12-20T01:40:35.266Z,7.17
2017-12-20T01:41:35.234Z,7.2
2017-12-20T01:42:35.581Z,7.2
2017-12-20T01:43:35.534Z,7.14
2017-12-20T01:44:35.548Z,7.18
2017-12-20T01:45:35.333Z,7.2
2017-12-20T01:46:35.568Z,7.23
2017-12-20T01:47:35.305Z,7.17
2017-12-20T01:48:35.591Z,7.18
2017-12-20T01:49:35.332Z,7.15
2017-12-20T01:50:35.389Z,7.14
2017-12-20T01:51:42.107Z,7.15
2017-12-20T01:52:35.361Z,7.15
2017-12-20T01:53:35.657Z,7.15
2017-12-20T01:54:35.662Z,7.14
2017-12-20T01:55:35.445Z,7.15
2017-12-20T01:56:35.409Z,7.15
2017-12-20T01:57:35.422Z,7.23
2017-12-20T01:58:35.715Z,7.17
2017-12-20T01:59:35.719Z,7.15
2017-12-20T02:00:35.509Z,7.18
2017-12-20T02:01:35.470Z,7.17
2017-12-20T02:02:35.479Z,7.15
2017-12-20T02:03:35.492Z,7.17
2017-12-20T02:04:35.505Z,7.17
2017-12-20T02:05:35.565Z,7.21
2017-12-20T02:06:35.534Z,7.13
2017-12-20T02:07:35.816Z,7.2
2017-12-20T02:08:35.831Z,7.15
2017-12-20T02:09:35.561Z,7.17
2017-12-20T02:10:35.909Z,7.2
2017-12-20T02:11:35.589Z,7.17
2017-12-20T02:12:35.871Z,7.13
2017-12-20T02:13:35.612Z,7.17
2017-12-20T02:14:35.621Z,7.11
2017-12-20T02:15:35.962Z,7.14
2017-12-20T02:16:35.921Z,7.17
2017-12-20T02:17:35.941Z,7.15
2017-12-20T02:18:35.675Z,7.1
2017-12-20T02:19:35.957Z,7.14
2017-12-20T02:20:35.690Z,7.06
2017-12-20T02:21:35.703Z,7.06
2017-12-20T02:22:35.716Z,7.05
2017-12-20T02:23:36.008Z,7.18
2017-12-20T02:25:01.411Z,7.17
2017-12-20T02:25:36.078Z,7.17
2017-12-20T02:26:35.764Z,7.21
2017-12-20T02:27:36.050Z,7.17
2017-12-20T02:28:35.785Z,7.2
2017-12-20T02:29:35.799Z,7.06
2017-12-20T02:30:36.148Z,7.14
2017-12-20T02:31:36.097Z,7.06
2017-12-20T02:32:35.836Z,7.14
2017-12-20T02:33:35.847Z,7.11
2017-12-20T02:34:35.584Z,7.11
2017-12-20T02:35:36.159Z,7.14
2017-12-20T02:36:36.162Z,7.13
2017-12-20T02:37:36.172Z,7.2
2017-12-20T02:38:36.188Z,7.17
2017-12-20T02:39:36.217Z,7.1
2017-12-20T02:40:36.264Z,7.21
2017-12-20T02:41:36.218Z,7.11
2017-12-20T02:42:36.233Z,7.1
2017-12-20T02:43:35.965Z,7.17
2017-12-20T02:44:36.000Z,7.14
2017-12-20T02:45:36.319Z,7.17
2017-12-20T02:46:35.999Z,7.1
2017-12-20T02:47:36.308Z,7.11
2017-12-20T02:48:36.297Z,7.11
2017-12-20T02:49:36.311Z,7.1
2017-12-20T02:50:36.046Z,7.1
2017-12-20T02:51:36.338Z,7.1
2017-12-20T02:52:36.347Z,7.1
2017-12-20T02:53:36.359Z,7.13
2017-12-20T02:54:35.823Z,7.18
2017-12-20T02:55:36.488Z,7.17
2017-12-20T02:56:36.633Z,7.2
2017-12-20T02:57:35.853Z,7.15
2017-12-20T02:58:36.418Z,7.07
2017-12-20T02:59:36.153Z,7.13
2017-12-20T03:00:36.445Z,7.1
2017-12-20T03:01:36.452Z,7.13
2017-12-20T03:02:36.205Z,7.11
2017-12-20T03:03:36.475Z,7.14
2017-12-20T03:04:36.213Z,7.07
2017-12-20T03:05:35.947Z,7.1
2017-12-20T03:06:36.510Z,7.06
2017-12-20T03:07:36.525Z,7.07
2017-12-20T03:08:36.261Z,7.15
2017-12-20T03:09:36.545Z,7.15
2017-12-20T03:10:36.301Z,7.2
2017-12-20T03:11:36.019Z,7.1
2017-12-20T03:12:36.581Z,7.07
2017-12-20T03:13:36.312Z,7.1
2017-12-20T03:14:36.609Z,7.17
2017-12-20T03:15:36.339Z,7.14
2017-12-20T03:16:36.359Z,7.14
2017-12-20T03:17:36.362Z,7.11
2017-12-20T03:18:36.648Z,7.15
2017-12-20T03:19:36.392Z,7.07
2017-12-20T03:20:36.399Z,7.18
2017-12-20T03:21:36.687Z,7.07
2017-12-20T03:22:36.421Z,7.1
2017-12-20T03:23:36.434Z,7.05
2017-12-20T03:24:36.728Z,7.07
2017-12-20T03:25:36.746Z,7.03
2017-12-20T03:26:36.470Z,7.18
2017-12-20T03:27:36.767Z,7.07
2017-12-20T03:28:36.774Z,7.07
2017-12-20T03:29:36.780Z,7.15
2017-12-20T03:30:36.801Z,7.14
2017-12-20T03:31:36.807Z,7.13
2017-12-20T03:32:36.816Z,7.07
2017-12-20T03:33:36.274Z,7.11
2017-12-20T03:34:36.565Z,7.06
2017-12-20T03:35:36.852Z,7.17
2017-12-20T03:36:36.586Z,7.14
2017-12-20T03:37:36.873Z,7.1
2017-12-20T03:38:36.884Z,7.14
2017-12-20T03:39:36.905Z,7.14
2017-12-20T03:40:36.633Z,7.07
2017-12-20T03:41:36.972Z,7.11
2017-12-20T03:42:36.933Z,7.14
2017-12-20T03:43:36.949Z,7.17
2017-12-20T03:44:36.690Z,7.11
2017-12-20T03:45:36.968Z,7.13
2017-12-20T03:46:36.979Z,7.17
2017-12-20T03:47:36.712Z,7.07
2017-12-20T03:48:37.004Z,7.07
2017-12-20T03:49:37.018Z,7.07
2017-12-20T03:50:36.749Z,7.1
2017-12-20T03:51:37.091Z,7.07
2017-12-20T03:52:36.784Z,7.18
2017-12-20T03:53:37.061Z,7.06
2017-12-20T03:54:37.078Z,7.13
2017-12-20T03:55:37.084Z,7.1
2017-12-20T03:56:36.819Z,7.07
2017-12-20T03:57:36.834Z,7.13
2017-12-20T03:58:36.567Z,7.1
2017-12-20T03:59:37.134Z,7.05
2017-12-20T04:00:37.142Z,7.06
2017-12-20T04:01:36.979Z,7.07
2017-12-20T04:02:37.169Z,7.07
2017-12-20T04:03:37.179Z,7.05
2017-12-20T04:04:37.191Z,7.06
2017-12-20T04:05:37.255Z,7.05
2017-12-20T04:06:37.222Z,7.03
2017-12-20T04:07:37.233Z,7.05
2017-12-20T04:08:36.684Z,7.06
2017-12-20T04:09:37.248Z,7.03
2017-12-20T04:10:37.266Z,7.1
2017-12-20T04:11:37.270Z,7.05
2017-12-20T04:12:37.011Z,7.03
2017-12-20T04:13:37.024Z,7.03
2017-12-20T04:14:37.035Z,7.03
2017-12-20T04:15:37.324Z,7.06
2017-12-20T04:16:37.388Z,7.02
2017-12-20T04:17:37.344Z,7.06
2017-12-20T04:18:37.354Z,7.06
2017-12-20T04:19:37.092Z,7
2017-12-20T04:20:37.377Z,7.03
2017-12-20T04:21:37.114Z,6.97
2017-12-20T04:22:37.401Z,6.95
2017-12-20T04:23:37.137Z,7.03
2017-12-20T04:24:37.145Z,7.05
2017-12-20T04:25:37.435Z,7.03
2017-12-20T04:26:37.174Z,7.03
2017-12-20T04:27:37.199Z,6.95
2017-12-20T04:28:37.471Z,6.93
2017-12-20T04:29:37.496Z,7.06
2017-12-20T04:30:37.227Z,6.95
2017-12-20T04:31:37.233Z,6.92
2017-12-20T04:32:37.519Z,7.03
2017-12-20T04:33:37.259Z,7.03
2017-12-20T04:34:37.266Z,7.02
2017-12-20T04:35:37.557Z,7
2017-12-20T04:36:37.342Z,6.93
2017-12-20T04:37:37.302Z,6.96
2017-12-20T04:38:37.589Z,7.05
2017-12-20T04:39:37.323Z,6.92
2017-12-20T04:40:37.611Z,7.02
2017-12-20T04:41:37.345Z,7.06
2017-12-20T04:42:37.361Z,7.05
2017-12-20T04:43:37.655Z,6.96
2017-12-20T04:44:37.666Z,6.96
2017-12-20T04:45:37.671Z,6.93
2017-12-20T04:46:37.660Z,7.03
2017-12-20T04:47:37.697Z,7.06
2017-12-20T04:48:37.708Z,6.96
2017-12-20T04:49:37.446Z,6.92
2017-12-20T04:50:37.461Z,6.92
2017-12-20T04:51:37.792Z,6.92
2017-12-20T04:52:37.475Z,6.92
2017-12-20T04:53:37.766Z,6.93
2017-12-20T04:54:37.780Z,6.93
2017-12-20T04:55:37.785Z,7.03
2017-12-20T04:56:37.522Z,6.99
2017-12-20T04:57:37.809Z,6.93
2017-12-20T04:58:37.269Z,6.92
2017-12-20T04:59:37.833Z,6.95
2017-12-20T05:00:37.846Z,7.02
2017-12-20T05:01:37.907Z,6.92
2017-12-20T05:02:37.871Z,6.97
2017-12-20T05:03:37.878Z,6.96
2017-12-20T05:04:37.895Z,6.93
2017-12-20T05:05:37.901Z,6.92
2017-12-20T05:06:37.921Z,6.88
2017-12-20T05:07:37.651Z,6.95
2017-12-20T05:08:37.937Z,6.92
2017-12-20T05:09:37.950Z,6.92
2017-12-20T05:10:37.696Z,6.92
2017-12-20T05:11:37.420Z,6.88
2017-12-20T05:12:37.711Z,6.95
2017-12-20T05:13:37.995Z,6.93
2017-12-20T05:14:37.738Z,6.87
2017-12-20T05:15:37.747Z,6.93
2017-12-20T05:16:38.080Z,6.92
2017-12-20T05:17:37.769Z,6.93
2017-12-20T05:18:37.782Z,6.85
2017-12-20T05:19:38.176Z,6.92
2017-12-20T05:20:37.808Z,6.87
2017-12-20T05:21:37.863Z,6.84
2017-12-20T05:22:37.822Z,6.89
2017-12-20T05:23:38.113Z,6.88
2017-12-20T05:24:37.848Z,6.84
2017-12-20T05:25:37.865Z,6.88
2017-12-20T05:26:38.196Z,6.87
2017-12-20T05:27:38.159Z,6.95
2017-12-20T05:28:37.898Z,6.92
2017-12-20T05:29:38.180Z,6.85
2017-12-20T05:30:37.923Z,6.85
2017-12-20T05:31:38.222Z,6.93
2017-12-20T05:32:37.939Z,6.82
2017-12-20T05:33:38.239Z,6.79
2017-12-20T05:34:37.963Z,6.89
2017-12-20T05:35:37.974Z,6.81
2017-12-20T05:36:37.985Z,6.84
2017-12-20T05:37:38.279Z,6.82
2017-12-20T05:38:38.289Z,6.78
2017-12-20T05:39:38.300Z,6.81
2017-12-20T05:40:38.313Z,6.84
2017-12-20T05:41:38.094Z,6.79
2017-12-20T05:42:38.437Z,6.78
2017-12-20T05:43:38.349Z,6.84
2017-12-20T05:44:37.799Z,6.78
2017-12-20T05:45:38.367Z,6.7
2017-12-20T05:46:38.155Z,6.77
2017-12-20T05:47:38.117Z,6.77
2017-12-20T05:48:38.130Z,6.72
2017-12-20T05:49:38.414Z,6.75
2017-12-20T05:50:38.429Z,6.72
2017-12-20T05:51:38.163Z,6.7
2017-12-20T05:52:38.172Z,6.75
2017-12-20T05:53:38.189Z,6.72
2017-12-20T05:54:38.477Z,6.75
2017-12-20T05:55:38.481Z,6.69
2017-12-20T05:56:38.542Z,6.67
2017-12-20T05:57:38.505Z,6.75
2017-12-20T05:58:38.520Z,6.72
2017-12-20T05:59:38.250Z,6.69
2017-12-20T06:00:38.267Z,6.66
2017-12-20T06:01:38.325Z,6.69
2017-12-20T06:02:38.567Z,6.75
2017-12-20T06:03:38.576Z,6.66
2017-12-20T06:04:38.313Z,6.72
2017-12-20T06:05:38.318Z,6.7
2017-12-20T06:06:38.435Z,6.63
2017-12-20T06:07:38.621Z,6.72
2017-12-20T06:08:38.637Z,6.72
2017-12-20T06:09:38.642Z,6.66
2017-12-20T06:10:38.655Z,6.74
2017-12-20T06:11:38.722Z,6.69
2017-12-20T06:12:38.680Z,6.7
2017-12-20T06:13:38.690Z,6.69
2017-12-20T06:14:38.701Z,6.72
2017-12-20T06:15:38.715Z,6.66
2017-12-20T06:16:38.497Z,6.66
2017-12-20T06:17:38.460Z,6.67
2017-12-20T06:18:38.748Z,6.62
2017-12-20T06:19:38.848Z,6.7
2017-12-20T06:20:38.771Z,6.69
2017-12-20T06:21:38.779Z,6.62
2017-12-20T06:22:38.804Z,6.66
2017-12-20T06:23:38.809Z,6.59
2017-12-20T06:24:38.819Z,6.63
2017-12-20T06:25:38.553Z,6.6
2017-12-20T06:26:38.839Z,6.62
2017-12-20T06:27:38.851Z,6.62
2017-12-20T06:28:38.638Z,6.72
2017-12-20T06:29:38.597Z,6.63
2017-12-20T06:30:38.894Z,6.6
2017-12-20T06:31:38.620Z,6.64
2017-12-20T06:32:38.912Z,6.6
2017-12-20T06:33:38.662Z,6.59
2017-12-20T06:34:38.947Z,6.63
2017-12-20T06:35:38.939Z,6.67
2017-12-20T06:36:38.678Z,6.64
2017-12-20T06:37:38.687Z,6.67
2017-12-20T06:38:38.975Z,6.7
2017-12-20T06:39:38.987Z,6.69
2017-12-20T06:40:38.997Z,6.7
2017-12-20T06:41:39.059Z,6.7
2017-12-20T06:42:39.023Z,6.63
2017-12-20T06:43:38.760Z,6.7
2017-12-20T06:44:38.785Z,6.67
2017-12-20T06:45:39.057Z,6.75
2017-12-20T06:46:39.075Z,6.57
2017-12-20T06:47:39.139Z,6.67
2017-12-20T06:48:38.815Z,6.75
2017-12-20T06:49:39.110Z,6.66
2017-12-20T06:50:38.838Z,6.69
2017-12-20T06:51:39.131Z,6.75
2017-12-20T06:52:39.138Z,6.66
2017-12-20T06:53:39.146Z,6.79
2017-12-20T06:54:38.881Z,6.72
2017-12-20T06:55:39.169Z,6.72
2017-12-20T06:56:39.233Z,6.74
2017-12-20T06:57:38.641Z,6.66
2017-12-20T06:58:39.203Z,6.77
2017-12-20T06:59:38.949Z,6.72
2017-12-20T07:00:38.678Z,6.69
2017-12-20T07:01:39.239Z,6.75
2017-12-20T07:02:38.973Z,6.7
2017-12-20T07:03:38.983Z,6.75
2017-12-20T07:04:39.002Z,6.81
2017-12-20T07:05:39.343Z,6.72
2017-12-20T07:06:39.299Z,6.69
2017-12-20T07:07:39.305Z,6.75
2017-12-20T07:08:39.040Z,6.74
2017-12-20T07:09:39.052Z,6.81
2017-12-20T07:10:39.069Z,6.72
2017-12-20T07:11:39.453Z,6.78
2017-12-20T07:12:39.086Z,6.75
2017-12-20T07:13:39.378Z,6.75
2017-12-20T07:14:39.391Z,6.74
2017-12-20T07:15:39.127Z,6.82
2017-12-20T07:16:39.413Z,6.84
2017-12-20T07:17:39.419Z,6.81
2017-12-20T07:18:39.434Z,6.82
2017-12-20T07:19:39.451Z,6.84
2017-12-20T07:20:39.180Z,6.85
2017-12-20T07:21:39.193Z,6.81
2017-12-20T07:22:39.485Z,6.84
2017-12-20T07:23:39.220Z,6.92
2017-12-20T07:24:39.504Z,6.85
2017-12-20T07:25:39.242Z,6.88
2017-12-20T07:26:39.541Z,6.87
2017-12-20T07:27:39.533Z,6.96
2017-12-20T07:28:39.548Z,6.93
2017-12-20T07:29:39.292Z,6.93
2017-12-20T07:30:39.587Z,6.95
2017-12-20T07:31:39.589Z,6.95
2017-12-20T07:32:39.591Z,6.92
2017-12-20T07:33:39.606Z,6.89
2017-12-20T07:34:39.340Z,6.88
2017-12-20T07:35:39.628Z,6.96
2017-12-20T07:36:39.640Z,6.93
2017-12-20T07:37:39.650Z,6.92
2017-12-20T07:38:39.660Z,6.97
2017-12-20T07:39:39.677Z,7
2017-12-20T07:40:39.690Z,6.99
2017-12-20T07:41:39.706Z,6.92
2017-12-20T07:42:39.435Z,7.02
2017-12-20T07:43:39.726Z,6.93
2017-12-20T07:44:39.503Z,7.03
2017-12-20T07:45:39.744Z,7.03
2017-12-20T07:46:39.484Z,6.95
2017-12-20T07:47:39.774Z,6.89
2017-12-20T07:48:39.786Z,7
2017-12-20T07:49:39.518Z,6.99
2017-12-20T07:50:39.806Z,7.05
2017-12-20T07:51:39.810Z,7.03
2017-12-20T07:52:39.549Z,7.05
2017-12-20T07:53:39.566Z,7
2017-12-20T07:54:39.582Z,6.93
2017-12-20T07:55:39.863Z,6.93
2017-12-20T07:56:39.681Z,7.05
2017-12-20T07:57:39.883Z,6.92
2017-12-20T07:58:39.622Z,7.06
2017-12-20T07:59:39.929Z,7.05
2017-12-20T08:00:39.918Z,7.06
2017-12-20T08:01:39.659Z,7.06
2017-12-20T08:02:40.052Z,7.03
2017-12-20T08:03:39.684Z,7.03
2017-12-20T08:04:39.704Z,6.96
2017-12-20T08:05:39.978Z,7.03
2017-12-20T08:06:39.994Z,7.05
2017-12-20T08:07:40.011Z,7.02
2017-12-20T08:08:39.519Z,7.1
2017-12-20T08:09:40.027Z,7.06
2017-12-20T08:10:39.761Z,7.07
2017-12-20T08:11:39.771Z,7.03
2017-12-20T08:12:39.787Z,7.02
2017-12-20T08:13:39.800Z,6.99
2017-12-20T08:14:40.082Z,7.02
2017-12-20T08:15:40.094Z,7.05
2017-12-20T08:16:40.115Z,7.05
2017-12-20T08:17:40.119Z,7.14
2017-12-20T08:18:40.131Z,7.11
2017-12-20T08:19:39.863Z,7.18
2017-12-20T08:20:40.155Z,7.11
2017-12-20T08:21:40.165Z,7.02
2017-12-20T08:22:40.197Z,7.2
2017-12-20T08:23:40.188Z,7.15
2017-12-20T08:24:39.925Z,7.17
2017-12-20T08:25:39.946Z,7.18
2017-12-20T08:26:39.949Z,7.15
2017-12-20T08:27:40.005Z,7.21
2017-12-20T08:28:40.242Z,7.17
2017-12-20T08:29:40.261Z,7.18
2017-12-20T08:30:40.355Z,7.18
2017-12-20T08:31:40.285Z,7.2
2017-12-20T08:32:40.292Z,7.13
2017-12-20T08:33:40.316Z,7.18
2017-12-20T08:34:40.314Z,7.18
2017-12-20T08:35:40.326Z,7.14
2017-12-20T08:36:40.061Z,7.13
2017-12-20T08:37:40.355Z,7.2
2017-12-20T08:38:40.092Z,7.17
2017-12-20T08:39:40.375Z,7.2
2017-12-20T08:40:40.386Z,7.18
2017-12-20T08:41:40.411Z,7.2
2017-12-20T08:42:40.419Z,7.23
2017-12-20T08:43:40.142Z,7.18
2017-12-20T08:44:40.153Z,7.2
2017-12-20T08:45:40.441Z,7.18
2017-12-20T08:46:40.454Z,7.23
2017-12-20T08:47:40.479Z,7.25
2017-12-20T08:48:40.201Z,7.31
2017-12-20T08:49:40.492Z,7.24
2017-12-20T08:50:40.503Z,7.28
2017-12-20T08:51:40.241Z,7.36
2017-12-20T08:52:40.317Z,7.24
2017-12-20T08:53:40.261Z,7.28
2017-12-20T08:54:40.555Z,7.28
2017-12-20T08:55:40.574Z,7.31
2017-12-20T08:56:40.572Z,7.25
2017-12-20T08:57:40.632Z,7.31
2017-12-20T08:58:40.045Z,7.29
2017-12-20T08:59:40.613Z,7.36
2017-12-20T09:00:40.626Z,7.33
2017-12-20T09:01:40.431Z,7.38
2017-12-20T09:02:40.696Z,7.43
2017-12-20T09:03:40.377Z,7.42
2017-12-20T09:04:40.714Z,7.38
2017-12-20T09:05:40.399Z,7.39
2017-12-20T09:06:40.414Z,7.47
2017-12-20T09:07:40.478Z,7.45
2017-12-20T09:08:40.164Z,7.39
2017-12-20T09:09:40.734Z,7.48
2017-12-20T09:10:40.463Z,7.48
2017-12-20T09:11:40.201Z,7.5
2017-12-20T09:12:40.765Z,7.48
2017-12-20T09:13:40.775Z,7.5
2017-12-20T09:14:40.787Z,7.5
2017-12-20T09:15:40.522Z,7.51
2017-12-20T09:16:40.813Z,7.53
2017-12-20T09:17:40.546Z,7.51
2017-12-20T09:18:40.836Z,7.56
2017-12-20T09:19:40.852Z,7.5
2017-12-20T09:20:40.589Z,7.66
2017-12-20T09:21:40.595Z,7.67
2017-12-20T09:22:40.616Z,7.6
2017-12-20T09:23:40.622Z,7.69
2017-12-20T09:24:40.914Z,7.69
2017-12-20T09:25:40.920Z,7.61
2017-12-20T09:26:40.938Z,7.61
2017-12-20T09:27:40.943Z,7.69
2017-12-20T09:28:40.962Z,7.61
2017-12-20T09:29:40.971Z,7.67
2017-12-20T09:30:41.030Z,7.73
2017-12-20T09:31:40.992Z,7.7
2017-12-20T09:32:40.726Z,7.72
2017-12-20T09:33:41.070Z,7.7
2017-12-20T09:34:40.751Z,7.73
2017-12-20T09:35:40.763Z,7.73
2017-12-20T09:36:41.051Z,7.67
2017-12-20T09:37:41.073Z,7.76
2017-12-20T09:38:41.092Z,7.8
2017-12-20T09:39:40.814Z,7.76
2017-12-20T09:40:40.823Z,7.82
2017-12-20T09:41:40.834Z,7.83
2017-12-20T09:42:40.905Z,7.82
2017-12-20T09:43:40.874Z,7.77
2017-12-20T09:44:41.148Z,7.77
2017-12-20T09:45:41.157Z,7.77
2017-12-20T09:46:40.893Z,7.8
2017-12-20T09:47:41.189Z,7.77
2017-12-20T09:48:41.245Z,7.93
2017-12-20T09:49:40.936Z,7.83
2017-12-20T09:50:40.944Z,7.93
2017-12-20T09:51:40.680Z,7.94
2017-12-20T09:52:40.696Z,7.87
2017-12-20T09:53:41.264Z,7.93
2017-12-20T09:54:40.995Z,7.94
2017-12-20T09:55:41.284Z,7.91
2017-12-20T09:56:41.297Z,7.91
2017-12-20T09:57:41.304Z,7.91
2017-12-20T09:58:41.382Z,7.9
2017-12-20T09:59:40.776Z,7.94
2017-12-20T10:00:41.342Z,8.01
2017-12-20T10:01:41.360Z,8.01
2017-12-20T10:02:40.814Z,8
2017-12-20T10:03:41.379Z,8.01
2017-12-20T10:04:41.394Z,8.01
2017-12-20T10:05:41.405Z,8
2017-12-20T10:06:41.419Z,7.98
2017-12-20T10:07:41.425Z,7.98
2017-12-20T10:08:41.444Z,7.95
2017-12-20T10:09:41.452Z,8.06
2017-12-20T10:10:41.196Z,8
2017-12-20T10:11:41.200Z,8.01
2017-12-20T10:12:41.498Z,7.97
2017-12-20T10:13:41.616Z,7.97
2017-12-20T10:14:41.244Z,7.98
2017-12-20T10:15:41.529Z,7.95
2017-12-20T10:16:41.615Z,7.98
2017-12-20T10:17:41.283Z,7.95
2017-12-20T10:18:41.564Z,8.03
2017-12-20T10:19:41.578Z,8.03
2017-12-20T10:20:41.314Z,8.08
2017-12-20T10:21:41.328Z,7.97
2017-12-20T10:22:41.335Z,7.98
2017-12-20T10:23:41.357Z,8.03
2017-12-20T10:24:41.638Z,8.03
2017-12-20T10:25:41.658Z,8.08
2017-12-20T10:26:41.747Z,8.01
2017-12-20T10:27:41.673Z,8.13
2017-12-20T10:28:41.736Z,8.1
2017-12-20T10:29:41.699Z,8.15
2017-12-20T10:30:41.449Z,8.13
2017-12-20T10:31:41.448Z,8.1
2017-12-20T10:33:41.476Z,8.13
2017-12-20T10:34:41.766Z,8.15
2017-12-20T10:35:41.776Z,8.13
2017-12-20T10:36:41.783Z,8.16
2017-12-20T10:37:41.799Z,8.2
2017-12-20T10:38:41.857Z,8.18
2017-12-20T10:39:41.548Z,8.18
2017-12-20T10:40:41.831Z,8.18
2017-12-20T10:41:41.846Z,8.15
2017-12-20T10:42:41.873Z,8.19
2017-12-20T10:43:41.923Z,8.18
2017-12-20T10:44:41.610Z,8.16
2017-12-20T10:45:41.892Z,8.19
2017-12-20T10:46:41.908Z,8.16
2017-12-20T10:47:41.921Z,8.19
2017-12-20T10:48:41.658Z,8.18
2017-12-20T10:49:41.943Z,8.16
2017-12-20T10:50:41.957Z,8.19
2017-12-20T10:51:41.964Z,8.24
2017-12-20T10:52:41.433Z,8.18
2017-12-20T10:53:41.996Z,8.19
2017-12-20T10:54:42.009Z,8.2
2017-12-20T10:55:42.026Z,8.26
2017-12-20T10:56:41.482Z,8.28
2017-12-20T10:57:42.047Z,8.27
2017-12-20T10:58:42.110Z,8.18
2017-12-20T10:59:42.075Z,8.31
2017-12-20T11:00:42.096Z,8.19
2017-12-20T11:01:42.096Z,8.28
2017-12-20T11:02:41.832Z,8.28
2017-12-20T11:03:41.846Z,8.31
2017-12-20T11:04:42.137Z,8.33
2017-12-20T11:05:41.872Z,8.36
2017-12-20T11:06:42.163Z,8.34
2017-12-20T11:07:41.902Z,8.33
2017-12-20T11:08:42.237Z,8.34
2017-12-20T11:09:41.921Z,8.31
2017-12-20T11:10:42.213Z,8.46
2017-12-20T11:11:41.952Z,8.51
2017-12-20T11:12:41.960Z,8.51
2017-12-20T11:13:42.303Z,8.51
2017-12-20T11:14:41.989Z,8.61
2017-12-20T11:15:41.996Z,8.58
2017-12-20T11:16:42.012Z,8.67
2017-12-20T11:17:42.023Z,8.69
2017-12-20T11:18:42.313Z,8.69
2017-12-20T11:19:42.291Z,8.71
2017-12-20T11:20:42.060Z,8.69
2017-12-20T11:21:42.351Z,8.82
2017-12-20T11:22:42.364Z,8.82
2017-12-20T11:23:42.148Z,8.82
2017-12-20T11:24:42.389Z,8.79
2017-12-20T11:25:42.403Z,8.82
2017-12-20T11:26:42.140Z,8.92
2017-12-20T11:27:42.426Z,8.88
2017-12-20T11:28:42.163Z,8.85
2017-12-20T11:29:42.455Z,8.94
2017-12-20T11:30:42.463Z,8.94
2017-12-20T11:31:42.480Z,8.97
2017-12-20T11:32:42.490Z,8.99
2017-12-20T11:33:42.553Z,9.02
2017-12-20T11:34:42.518Z,9.02
2017-12-20T11:35:42.255Z,9.03
2017-12-20T11:36:42.268Z,9.06
2017-12-20T11:37:42.555Z,9.03
2017-12-20T11:38:42.622Z,9
2017-12-20T11:39:42.584Z,9.04
2017-12-20T11:40:42.596Z,9.08
2017-12-20T11:41:42.625Z,9.18
2017-12-20T11:42:42.834Z,9.13
2017-12-20T11:43:42.684Z,9.16
2017-12-20T11:44:42.673Z,9.13
2017-12-20T11:45:42.664Z,9.16
2017-12-20T11:46:42.406Z,9.14
2017-12-20T11:47:42.706Z,9.14
2017-12-20T11:48:42.700Z,9.28
2017-12-20T11:49:42.712Z,9.25
2017-12-20T11:50:42.728Z,9.29
2017-12-20T11:51:42.753Z,9.28
2017-12-20T11:52:42.797Z,9.32
2017-12-20T11:53:42.821Z,9.34
2017-12-20T11:54:42.502Z,9.32
2017-12-20T11:55:42.520Z,9.22
2017-12-20T11:56:42.812Z,9.25
2017-12-20T11:57:42.827Z,9.36
2017-12-20T11:58:42.881Z,9.37
2017-12-20T11:59:42.566Z,9.26
2017-12-20T12:00:42.863Z,9.36
2017-12-20T12:01:42.596Z,9.36
2017-12-20T12:02:42.888Z,9.37
2017-12-20T12:03:43.108Z,9.36
2017-12-20T12:04:42.638Z,9.4
2017-12-20T12:05:42.927Z,9.36
2017-12-20T12:06:42.979Z,9.4
2017-12-20T12:07:42.678Z,9.41
2017-12-20T12:08:42.685Z,9.4
2017-12-20T12:09:42.702Z,9.37
2017-12-20T12:10:42.993Z,9.37
2017-12-20T12:11:43.002Z,9.37
2017-12-20T12:12:43.031Z,9.34
2017-12-20T12:13:43.028Z,9.39
2017-12-20T12:14:43.048Z,9.4
2017-12-20T12:15:43.065Z,9.39
2017-12-20T12:16:42.800Z,9.4
2017-12-20T12:17:43.080Z,9.4
2017-12-20T12:18:43.098Z,9.4
2017-12-20T12:19:42.835Z,9.39
2017-12-20T12:20:43.123Z,9.4
2017-12-20T12:21:43.064Z,9.46
2017-12-20T12:22:43.154Z,9.46
2017-12-20T12:23:42.938Z,9.43
2017-12-20T12:24:43.177Z,9.41
2017-12-20T12:25:43.198Z,9.46
2017-12-20T12:26:43.205Z,9.4
2017-12-20T12:27:43.220Z,9.34
2017-12-20T12:28:42.967Z,9.37
2017-12-20T12:29:43.247Z,9.39
2017-12-20T12:30:43.261Z,9.43
2017-12-20T12:31:42.998Z,9.43
2017-12-20T12:32:43.009Z,9.4
2017-12-20T12:33:43.302Z,9.4
2017-12-20T12:34:43.047Z,9.4
2017-12-20T12:35:43.331Z,9.4
2017-12-20T12:36:43.063Z,9.43
2017-12-20T12:37:43.352Z,9.41
2017-12-20T12:38:43.420Z,9.44
2017-12-20T12:39:43.107Z,9.46
2017-12-20T12:40:43.394Z,9.37
2017-12-20T12:41:43.182Z,9.4
2017-12-20T12:42:43.150Z,9.41
2017-12-20T12:43:43.485Z,9.41
2017-12-20T12:44:43.480Z,9.39
2017-12-20T12:45:43.464Z,9.41
2017-12-20T12:46:43.199Z,9.36
2017-12-20T12:47:43.484Z,9.44
2017-12-20T12:48:43.500Z,9.4
2017-12-20T12:49:43.248Z,9.4
2017-12-20T12:50:43.548Z,9.36
2017-12-20T12:51:43.267Z,9.39
2017-12-20T12:52:43.282Z,9.32
2017-12-20T12:53:43.581Z,9.31
2017-12-20T12:54:43.586Z,9.32
2017-12-20T12:55:43.319Z,9.22
2017-12-20T12:56:43.608Z,9.34
2017-12-20T12:57:43.619Z,9.31
2017-12-20T12:58:43.081Z,9.28
2017-12-20T12:59:43.660Z,9.23
2017-12-20T13:00:43.661Z,9.26
2017-12-20T13:01:43.681Z,9.26
2017-12-20T13:02:43.419Z,9.26
2017-12-20T13:03:43.704Z,9.22
2017-12-20T13:04:43.464Z,9.25
2017-12-20T13:05:43.732Z,9.16
2017-12-20T13:06:43.471Z,9.21
2017-12-20T13:07:43.760Z,9.25
2017-12-20T13:08:43.769Z,9.19
2017-12-20T13:09:43.781Z,9.25
2017-12-20T13:10:43.796Z,9.19
2017-12-20T13:11:43.828Z,9.16
2017-12-20T13:12:43.548Z,9.14
2017-12-20T13:13:43.836Z,9.14
2017-12-20T13:14:43.854Z,9.19
2017-12-20T13:15:43.867Z,9.16
2017-12-20T13:16:43.882Z,9.13
2017-12-20T13:17:43.663Z,9.22
2017-12-20T13:18:43.645Z,9.19
2017-12-20T13:19:43.926Z,9.16
2017-12-20T13:20:43.669Z,9.13
2017-12-20T13:21:43.948Z,9.14
2017-12-20T13:22:43.958Z,9.11
2017-12-20T13:23:43.703Z,9.08